sensor_id;sensor_type;location;lat;lon;timestamp;temperature;humidity
16038;DHT22;8123;50.906;6.172;2023-09-18T00:00:46;19.90;99.90
16038;DHT22;8123;50.906;6.172;2023-09-18T00:03:12;19.80;75.30
16038;DHT22;8123;50.906;6.172;2023-09-18T00:05:37;19.90;76.40
16038;DHT22;8123;50.906;6.172;2023-09-18T00:08:03;19.80;95.60
16038;DHT22;8123;50.906;6.172;2023-09-18T00:10:29;19.80;99.90
16038;DHT22;8123;50.906;6.172;2023-09-18T00:12:56;19.80;96.30
16038;DHT22;8123;50.906;6.172;2023-09-18T00:15:22;19.80;99.90
16038;DHT22;8123;50.906;6.172;2023-09-18T00:17:48;19.80;99.90
16038;DHT22;8123;50.906;6.172;2023-09-18T00:20:14;19.80;99.90
16038;DHT22;8123;50.906;6.172;2023-09-18T00:22:42;19.80;99.90
16038;DHT22;8123;50.906;6.172;2023-09-18T00:25:08;19.70;99.90
16038;DHT22;8123;50.906;6.172;2023-09-18T00:27:34;19.70;99.90
16038;DHT22;8123;50.906;6.172;2023-09-18T00:30:02;19.70;99.90
16038;DHT22;8123;50.906;6.172;2023-09-18T00:32:28;19.70;99.00
16038;DHT22;8123;50.906;6.172;2023-09-18T00:34:54;19.70;99.20
16038;DHT22;8123;50.906;6.172;2023-09-18T00:37:20;19.70;99.90
16038;DHT22;8123;50.906;6.172;2023-09-18T00:39:45;19.70;99.90
16038;DHT22;8123;50.906;6.172;2023-09-18T00:42:11;19.60;99.90
16038;DHT22;8123;50.906;6.172;2023-09-18T00:44:39;19.60;99.90
16038;DHT22;8123;50.906;6.172;2023-09-18T00:47:10;19.60;99.90
16038;DHT22;8123;50.906;6.172;2023-09-18T00:49:38;19.60;99.90
16038;DHT22;8123;50.906;6.172;2023-09-18T00:52:06;19.50;99.90
16038;DHT22;8123;50.906;6.172;2023-09-18T00:54:33;19.60;99.90
16038;DHT22;8123;50.906;6.172;2023-09-18T00:57:00;19.50;99.90
16038;DHT22;8123;50.906;6.172;2023-09-18T00:59:26;19.50;99.90
16038;DHT22;8123;50.906;6.172;2023-09-18T01:01:52;19.50;99.90
16038;DHT22;8123;50.906;6.172;2023-09-18T01:04:18;19.50;99.90
16038;DHT22;8123;50.906;6.172;2023-09-18T01:06:44;19.50;99.90
16038;DHT22;8123;50.906;6.172;2023-09-18T01:09:10;19.50;99.90
16038;DHT22;8123;50.906;6.172;2023-09-18T01:11:56;19.60;99.90
16038;DHT22;8123;50.906;6.172;2023-09-18T01:14:32;19.50;99.90
16038;DHT22;8123;50.906;6.172;2023-09-18T01:17:00;19.50;99.90
16038;DHT22;8123;50.906;6.172;2023-09-18T01:22:06;19.40;99.90
16038;DHT22;8123;50.906;6.172;2023-09-18T01:24:33;19.40;99.90
16038;DHT22;8123;50.906;6.172;2023-09-18T01:26:59;19.40;99.90
16038;DHT22;8123;50.906;6.172;2023-09-18T01:29:25;19.30;99.90
16038;DHT22;8123;50.906;6.172;2023-09-18T01:31:50;19.30;99.90
16038;DHT22;8123;50.906;6.172;2023-09-18T01:34:19;19.20;99.90
16038;DHT22;8123;50.906;6.172;2023-09-18T01:36:46;19.20;99.90
16038;DHT22;8123;50.906;6.172;2023-09-18T01:39:12;19.20;99.90
16038;DHT22;8123;50.906;6.172;2023-09-18T01:41:39;19.20;99.90
16038;DHT22;8123;50.906;6.172;2023-09-18T01:44:06;19.20;99.90
16038;DHT22;8123;50.906;6.172;2023-09-18T01:46:33;19.20;99.90
16038;DHT22;8123;50.906;6.172;2023-09-18T01:49:02;19.20;99.90
16038;DHT22;8123;50.906;6.172;2023-09-18T01:51:29;19.20;99.90
16038;DHT22;8123;50.906;6.172;2023-09-18T01:53:55;19.20;99.90
16038;DHT22;8123;50.906;6.172;2023-09-18T01:56:21;19.30;99.90
16038;DHT22;8123;50.906;6.172;2023-09-18T01:58:47;19.30;99.90
16038;DHT22;8123;50.906;6.172;2023-09-18T02:01:13;19.40;99.90
16038;DHT22;8123;50.906;6.172;2023-09-18T02:03:39;19.30;99.90
16038;DHT22;8123;50.906;6.172;2023-09-18T02:06:08;19.30;99.90
16038;DHT22;8123;50.906;6.172;2023-09-18T02:08:34;19.50;99.90
16038;DHT22;8123;50.906;6.172;2023-09-18T02:11:00;19.50;99.90
16038;DHT22;8123;50.906;6.172;2023-09-18T02:13:26;19.50;99.90
16038;DHT22;8123;50.906;6.172;2023-09-18T02:15:52;19.60;99.90
16038;DHT22;8123;50.906;6.172;2023-09-18T02:18:18;19.60;99.90
16038;DHT22;8123;50.906;6.172;2023-09-18T02:20:44;19.70;1.00
16038;DHT22;8123;50.906;6.172;2023-09-18T02:23:13;19.90;1.00
16038;DHT22;8123;50.906;6.172;2023-09-18T02:25:38;19.90;1.00
16038;DHT22;8123;50.906;6.172;2023-09-18T02:28:06;20.00;99.90
16038;DHT22;8123;50.906;6.172;2023-09-18T02:30:32;20.10;76.10
16038;DHT22;8123;50.906;6.172;2023-09-18T02:32:57;20.20;1.00
16038;DHT22;8123;50.906;6.172;2023-09-18T02:35:23;20.20;1.00
16038;DHT22;8123;50.906;6.172;2023-09-18T02:37:48;20.30;1.00
16038;DHT22;8123;50.906;6.172;2023-09-18T02:40:14;20.30;1.00
16038;DHT22;8123;50.906;6.172;2023-09-18T02:42:40;20.40;99.90
16038;DHT22;8123;50.906;6.172;2023-09-18T02:45:06;20.50;1.00
16038;DHT22;8123;50.906;6.172;2023-09-18T02:47:33;20.70;1.00
16038;DHT22;8123;50.906;6.172;2023-09-18T02:49:59;20.70;1.00
16038;DHT22;8123;50.906;6.172;2023-09-18T02:52:24;20.80;94.20
16038;DHT22;8123;50.906;6.172;2023-09-18T02:54:50;20.80;1.00
16038;DHT22;8123;50.906;6.172;2023-09-18T02:57:16;20.80;1.00
16038;DHT22;8123;50.906;6.172;2023-09-18T02:59:41;20.80;99.90
16038;DHT22;8123;50.906;6.172;2023-09-18T03:02:07;20.80;1.00
16038;DHT22;8123;50.906;6.172;2023-09-18T03:04:33;20.80;99.90
16038;DHT22;8123;50.906;6.172;2023-09-18T03:06:58;20.80;99.90
16038;DHT22;8123;50.906;6.172;2023-09-18T03:09:24;20.70;1.00
16038;DHT22;8123;50.906;6.172;2023-09-18T03:11:49;20.60;61.20
16038;DHT22;8123;50.906;6.172;2023-09-18T03:14:15;20.50;99.90
16038;DHT22;8123;50.906;6.172;2023-09-18T03:16:41;20.40;99.90
16038;DHT22;8123;50.906;6.172;2023-09-18T03:19:06;20.30;99.90
16038;DHT22;8123;50.906;6.172;2023-09-18T03:21:32;20.30;99.90
16038;DHT22;8123;50.906;6.172;2023-09-18T03:24:00;20.30;99.90
16038;DHT22;8123;50.906;6.172;2023-09-18T03:26:26;20.20;99.90
16038;DHT22;8123;50.906;6.172;2023-09-18T03:28:53;20.20;99.90
16038;DHT22;8123;50.906;6.172;2023-09-18T03:31:18;20.20;99.90
16038;DHT22;8123;50.906;6.172;2023-09-18T03:33:44;20.20;94.90
16038;DHT22;8123;50.906;6.172;2023-09-18T03:36:09;20.20;99.90
16038;DHT22;8123;50.906;6.172;2023-09-18T03:38:36;20.10;1.00
16038;DHT22;8123;50.906;6.172;2023-09-18T03:41:02;20.20;1.00
16038;DHT22;8123;50.906;6.172;2023-09-18T03:43:28;20.30;99.90
16038;DHT22;8123;50.906;6.172;2023-09-18T03:45:53;20.20;12.40
16038;DHT22;8123;50.906;6.172;2023-09-18T03:48:19;20.10;1.00
16038;DHT22;8123;50.906;6.172;2023-09-18T03:50:47;19.90;99.90
16038;DHT22;8123;50.906;6.172;2023-09-18T03:53:12;19.90;99.90
16038;DHT22;8123;50.906;6.172;2023-09-18T03:55:38;20.00;99.90
16038;DHT22;8123;50.906;6.172;2023-09-18T03:58:04;19.80;1.00
16038;DHT22;8123;50.906;6.172;2023-09-18T04:00:30;19.80;1.00
16038;DHT22;8123;50.906;6.172;2023-09-18T04:02:56;19.70;99.90
16038;DHT22;8123;50.906;6.172;2023-09-18T04:05:22;19.70;99.90
16038;DHT22;8123;50.906;6.172;2023-09-18T04:07:47;19.60;96.50
16038;DHT22;8123;50.906;6.172;2023-09-18T04:10:14;19.60;99.90
16038;DHT22;8123;50.906;6.172;2023-09-18T04:12:45;19.60;99.90
16038;DHT22;8123;50.906;6.172;2023-09-18T04:15:14;19.50;1.00
16038;DHT22;8123;50.906;6.172;2023-09-18T04:17:40;19.50;99.90
16038;DHT22;8123;50.906;6.172;2023-09-18T04:20:06;19.50;99.90
16038;DHT22;8123;50.906;6.172;2023-09-18T04:22:31;19.50;99.90
16038;DHT22;8123;50.906;6.172;2023-09-18T04:24:57;19.50;99.90
16038;DHT22;8123;50.906;6.172;2023-09-18T04:27:22;19.50;99.90
16038;DHT22;8123;50.906;6.172;2023-09-18T04:29:48;19.60;1.00
16038;DHT22;8123;50.906;6.172;2023-09-18T04:32:14;19.60;1.00
16038;DHT22;8123;50.906;6.172;2023-09-18T04:34:39;19.60;1.00
16038;DHT22;8123;50.906;6.172;2023-09-18T04:37:05;19.60;1.00
16038;DHT22;8123;50.906;6.172;2023-09-18T04:39:30;19.60;74.00
16038;DHT22;8123;50.906;6.172;2023-09-18T04:42:00;19.60;1.00
16038;DHT22;8123;50.906;6.172;2023-09-18T04:44:26;19.60;1.00
16038;DHT22;8123;50.906;6.172;2023-09-18T04:46:52;19.60;1.00
16038;DHT22;8123;50.906;6.172;2023-09-18T04:49:18;19.60;1.00
16038;DHT22;8123;50.906;6.172;2023-09-18T04:51:43;19.60;1.00
16038;DHT22;8123;50.906;6.172;2023-09-18T04:54:09;19.60;1.00
16038;DHT22;8123;50.906;6.172;2023-09-18T04:56:35;19.60;1.00
16038;DHT22;8123;50.906;6.172;2023-09-18T04:59:00;19.60;1.00
16038;DHT22;8123;50.906;6.172;2023-09-18T05:01:26;19.60;1.00
16038;DHT22;8123;50.906;6.172;2023-09-18T05:03:52;19.60;14.50
16038;DHT22;8123;50.906;6.172;2023-09-18T05:06:18;19.50;1.00
16038;DHT22;8123;50.906;6.172;2023-09-18T05:08:44;19.60;1.00
16038;DHT22;8123;50.906;6.172;2023-09-18T05:11:09;19.60;1.00
16038;DHT22;8123;50.906;6.172;2023-09-18T05:13:35;19.60;1.00
16038;DHT22;8123;50.906;6.172;2023-09-18T05:16:00;19.60;1.00
16038;DHT22;8123;50.906;6.172;2023-09-18T05:18:26;19.70;1.00
16038;DHT22;8123;50.906;6.172;2023-09-18T05:20:52;19.60;1.00
16038;DHT22;8123;50.906;6.172;2023-09-18T05:23:18;19.70;1.00
16038;DHT22;8123;50.906;6.172;2023-09-18T05:25:44;19.70;1.00
16038;DHT22;8123;50.906;6.172;2023-09-18T05:28:10;19.60;1.00
16038;DHT22;8123;50.906;6.172;2023-09-18T05:30:36;19.60;1.00
16038;DHT22;8123;50.906;6.172;2023-09-18T05:33:05;19.60;1.00
16038;DHT22;8123;50.906;6.172;2023-09-18T05:35:36;19.70;99.90
16038;DHT22;8123;50.906;6.172;2023-09-18T05:38:05;19.70;99.90
16038;DHT22;8123;50.906;6.172;2023-09-18T05:40:31;19.70;99.90
16038;DHT22;8123;50.906;6.172;2023-09-18T05:42:57;19.70;1.00
16038;DHT22;8123;50.906;6.172;2023-09-18T05:45:23;19.60;1.00
16038;DHT22;8123;50.906;6.172;2023-09-18T05:47:49;19.60;1.00
16038;DHT22;8123;50.906;6.172;2023-09-18T05:50:15;19.60;1.00
16038;DHT22;8123;50.906;6.172;2023-09-18T05:52:45;19.50;1.00
16038;DHT22;8123;50.906;6.172;2023-09-18T05:55:13;19.50;94.00
16038;DHT22;8123;50.906;6.172;2023-09-18T05:57:38;19.50;1.00
16038;DHT22;8123;50.906;6.172;2023-09-18T06:00:04;19.50;1.00
16038;DHT22;8123;50.906;6.172;2023-09-18T06:02:30;19.60;99.90
16038;DHT22;8123;50.906;6.172;2023-09-18T06:05:00;19.50;1.00
16038;DHT22;8123;50.906;6.172;2023-09-18T06:07:29;19.50;1.00
16038;DHT22;8123;50.906;6.172;2023-09-18T06:09:55;19.50;99.90
16038;DHT22;8123;50.906;6.172;2023-09-18T06:12:21;19.50;99.90
16038;DHT22;8123;50.906;6.172;2023-09-18T06:14:47;19.60;99.90
16038;DHT22;8123;50.906;6.172;2023-09-18T06:17:13;19.60;17.60
16038;DHT22;8123;50.906;6.172;2023-09-18T06:19:40;19.60;20.90
16038;DHT22;8123;50.906;6.172;2023-09-18T06:22:06;19.60;7.90
16038;DHT22;8123;50.906;6.172;2023-09-18T06:24:34;19.60;1.00
16038;DHT22;8123;50.906;6.172;2023-09-18T06:27:00;19.60;1.00
16038;DHT22;8123;50.906;6.172;2023-09-18T06:29:27;19.60;1.00
16038;DHT22;8123;50.906;6.172;2023-09-18T06:31:52;19.60;99.90
16038;DHT22;8123;50.906;6.172;2023-09-18T06:34:18;19.60;1.00
16038;DHT22;8123;50.906;6.172;2023-09-18T06:36:44;19.50;1.00
16038;DHT22;8123;50.906;6.172;2023-09-18T06:39:10;19.50;1.00
16038;DHT22;8123;50.906;6.172;2023-09-18T06:41:35;19.60;1.00
16038;DHT22;8123;50.906;6.172;2023-09-18T06:44:02;19.60;99.90
16038;DHT22;8123;50.906;6.172;2023-09-18T06:46:32;19.60;99.90
16038;DHT22;8123;50.906;6.172;2023-09-18T06:48:57;19.60;1.00
16038;DHT22;8123;50.906;6.172;2023-09-18T06:51:25;19.50;99.90
16038;DHT22;8123;50.906;6.172;2023-09-18T06:53:51;19.50;1.00
16038;DHT22;8123;50.906;6.172;2023-09-18T06:56:17;19.50;1.00
16038;DHT22;8123;50.906;6.172;2023-09-18T06:58:42;19.50;1.00
16038;DHT22;8123;50.906;6.172;2023-09-18T07:01:08;19.50;1.00
16038;DHT22;8123;50.906;6.172;2023-09-18T07:03:35;19.50;1.00
16038;DHT22;8123;50.906;6.172;2023-09-18T07:06:02;19.50;1.00
16038;DHT22;8123;50.906;6.172;2023-09-18T07:08:29;19.50;1.00
16038;DHT22;8123;50.906;6.172;2023-09-18T07:10:55;19.50;1.00
16038;DHT22;8123;50.906;6.172;2023-09-18T07:13:21;19.50;1.00
16038;DHT22;8123;50.906;6.172;2023-09-18T07:15:46;19.50;99.90
16038;DHT22;8123;50.906;6.172;2023-09-18T07:18:13;19.50;1.00
16038;DHT22;8123;50.906;6.172;2023-09-18T07:20:48;19.50;99.90
16038;DHT22;8123;50.906;6.172;2023-09-18T07:23:14;19.50;99.90
16038;DHT22;8123;50.906;6.172;2023-09-18T07:25:40;19.50;1.00
16038;DHT22;8123;50.906;6.172;2023-09-18T07:28:09;19.50;1.00
16038;DHT22;8123;50.906;6.172;2023-09-18T07:30:38;19.50;99.90
16038;DHT22;8123;50.906;6.172;2023-09-18T07:33:04;19.50;99.90
16038;DHT22;8123;50.906;6.172;2023-09-18T07:35:30;19.50;1.00
16038;DHT22;8123;50.906;6.172;2023-09-18T07:37:56;19.50;1.00
16038;DHT22;8123;50.906;6.172;2023-09-18T07:40:22;19.50;99.90
16038;DHT22;8123;50.906;6.172;2023-09-18T07:42:48;19.50;99.90
16038;DHT22;8123;50.906;6.172;2023-09-18T07:45:14;19.50;69.90
16038;DHT22;8123;50.906;6.172;2023-09-18T07:47:39;19.50;1.00
16038;DHT22;8123;50.906;6.172;2023-09-18T07:50:05;19.50;1.00
16038;DHT22;8123;50.906;6.172;2023-09-18T07:52:31;19.60;1.00
16038;DHT22;8123;50.906;6.172;2023-09-18T07:54:58;19.60;1.00
16038;DHT22;8123;50.906;6.172;2023-09-18T07:57:27;19.60;99.90
16038;DHT22;8123;50.906;6.172;2023-09-18T07:59:58;19.60;99.90
16038;DHT22;8123;50.906;6.172;2023-09-18T08:02:26;19.70;1.00
16038;DHT22;8123;50.906;6.172;2023-09-18T08:04:54;19.70;1.00
16038;DHT22;8123;50.906;6.172;2023-09-18T08:07:19;19.80;99.90
16038;DHT22;8123;50.906;6.172;2023-09-18T08:09:45;19.80;1.00
16038;DHT22;8123;50.906;6.172;2023-09-18T08:12:13;19.80;1.00
16038;DHT22;8123;50.906;6.172;2023-09-18T08:14:38;19.90;99.90
16038;DHT22;8123;50.906;6.172;2023-09-18T08:17:04;19.90;99.90
16038;DHT22;8123;50.906;6.172;2023-09-18T08:19:30;19.80;1.00
16038;DHT22;8123;50.906;6.172;2023-09-18T08:21:58;19.90;99.90
16038;DHT22;8123;50.906;6.172;2023-09-18T08:24:25;19.90;99.90
16038;DHT22;8123;50.906;6.172;2023-09-18T08:26:51;19.90;99.90
16038;DHT22;8123;50.906;6.172;2023-09-18T08:29:17;19.90;99.90
16038;DHT22;8123;50.906;6.172;2023-09-18T08:31:43;20.00;1.00
16038;DHT22;8123;50.906;6.172;2023-09-18T08:34:09;20.00;50.30
16038;DHT22;8123;50.906;6.172;2023-09-18T08:36:35;20.00;27.20
16038;DHT22;8123;50.906;6.172;2023-09-18T08:39:00;20.10;99.90
16038;DHT22;8123;50.906;6.172;2023-09-18T08:41:28;20.10;99.90
16038;DHT22;8123;50.906;6.172;2023-09-18T08:43:59;20.10;1.00
16038;DHT22;8123;50.906;6.172;2023-09-18T08:46:26;20.20;1.00
16038;DHT22;8123;50.906;6.172;2023-09-18T08:48:52;20.30;1.00
16038;DHT22;8123;50.906;6.172;2023-09-18T08:51:19;20.30;1.00
16038;DHT22;8123;50.906;6.172;2023-09-18T08:53:46;20.30;1.00
16038;DHT22;8123;50.906;6.172;2023-09-18T08:56:13;20.30;1.00
16038;DHT22;8123;50.906;6.172;2023-09-18T08:58:40;20.30;99.90
16038;DHT22;8123;50.906;6.172;2023-09-18T09:01:11;20.30;1.00
16038;DHT22;8123;50.906;6.172;2023-09-18T09:03:40;20.30;99.90
16038;DHT22;8123;50.906;6.172;2023-09-18T09:06:08;20.40;99.90
16038;DHT22;8123;50.906;6.172;2023-09-18T09:08:35;20.30;1.00
16038;DHT22;8123;50.906;6.172;2023-09-18T09:11:01;20.40;99.90
16038;DHT22;8123;50.906;6.172;2023-09-18T09:13:27;20.40;99.90
16038;DHT22;8123;50.906;6.172;2023-09-18T09:15:57;20.30;99.90
16038;DHT22;8123;50.906;6.172;2023-09-18T09:18:25;20.40;99.90
16038;DHT22;8123;50.906;6.172;2023-09-18T09:21:01;20.40;99.90
16038;DHT22;8123;50.906;6.172;2023-09-18T09:23:52;20.30;99.90
16038;DHT22;8123;50.906;6.172;2023-09-18T09:26:19;20.40;1.00
16038;DHT22;8123;50.906;6.172;2023-09-18T09:28:46;20.50;99.80
16038;DHT22;8123;50.906;6.172;2023-09-18T09:31:22;20.50;1.00
16038;DHT22;8123;50.906;6.172;2023-09-18T09:33:51;20.50;1.00
16038;DHT22;8123;50.906;6.172;2023-09-18T09:36:22;20.60;1.00
16038;DHT22;8123;50.906;6.172;2023-09-18T09:38:48;20.60;1.00
16038;DHT22;8123;50.906;6.172;2023-09-18T09:41:15;20.70;99.90
16038;DHT22;8123;50.906;6.172;2023-09-18T09:43:42;20.80;1.00
16038;DHT22;8123;50.906;6.172;2023-09-18T09:46:15;20.90;1.00
16038;DHT22;8123;50.906;6.172;2023-09-18T09:49:05;21.00;99.90
16038;DHT22;8123;50.906;6.172;2023-09-18T09:51:31;21.10;99.90
16038;DHT22;8123;50.906;6.172;2023-09-18T09:53:58;21.10;1.00
16038;DHT22;8123;50.906;6.172;2023-09-18T09:56:47;21.10;1.00
16038;DHT22;8123;50.906;6.172;2023-09-18T09:59:15;21.10;99.90
16038;DHT22;8123;50.906;6.172;2023-09-18T10:01:41;21.30;1.00
16038;DHT22;8123;50.906;6.172;2023-09-18T10:04:18;21.40;1.00
16038;DHT22;8123;50.906;6.172;2023-09-18T10:06:52;21.40;99.90
16038;DHT22;8123;50.906;6.172;2023-09-18T10:09:21;21.30;1.00
16038;DHT22;8123;50.906;6.172;2023-09-18T10:11:52;21.30;1.00
16038;DHT22;8123;50.906;6.172;2023-09-18T10:14:30;21.40;88.90
16038;DHT22;8123;50.906;6.172;2023-09-18T10:17:00;21.50;1.00
16038;DHT22;8123;50.906;6.172;2023-09-18T10:22:54;21.60;99.90
16038;DHT22;8123;50.906;6.172;2023-09-18T10:25:23;21.60;1.00
16038;DHT22;8123;50.906;6.172;2023-09-18T10:27:51;21.60;1.00
16038;DHT22;8123;50.906;6.172;2023-09-18T10:30:23;21.70;1.00
16038;DHT22;8123;50.906;6.172;2023-09-18T10:32:51;21.80;99.90
16038;DHT22;8123;50.906;6.172;2023-09-18T10:35:17;21.80;99.90
16038;DHT22;8123;50.906;6.172;2023-09-18T10:37:44;21.90;99.90
16038;DHT22;8123;50.906;6.172;2023-09-18T10:40:11;21.90;99.90
16038;DHT22;8123;50.906;6.172;2023-09-18T10:42:41;22.10;99.90
16038;DHT22;8123;50.906;6.172;2023-09-18T10:45:09;22.00;99.90
16038;DHT22;8123;50.906;6.172;2023-09-18T10:47:40;22.00;1.00
16038;DHT22;8123;50.906;6.172;2023-09-18T10:50:08;22.00;78.10
16038;DHT22;8123;50.906;6.172;2023-09-18T10:52:35;22.00;1.00
16038;DHT22;8123;50.906;6.172;2023-09-18T10:55:01;22.10;1.00
16038;DHT22;8123;50.906;6.172;2023-09-18T10:57:36;22.10;1.00
16038;DHT22;8123;50.906;6.172;2023-09-18T11:00:03;22.10;1.00
16038;DHT22;8123;50.906;6.172;2023-09-18T11:02:40;22.20;1.00
16038;DHT22;8123;50.906;6.172;2023-09-18T11:05:06;22.50;1.00
16038;DHT22;8123;50.906;6.172;2023-09-18T11:07:32;22.70;99.90
16038;DHT22;8123;50.906;6.172;2023-09-18T11:09:57;22.70;99.90
16038;DHT22;8123;50.906;6.172;2023-09-18T11:12:43;22.70;99.90
16038;DHT22;8123;50.906;6.172;2023-09-18T11:15:09;22.80;99.90
16038;DHT22;8123;50.906;6.172;2023-09-18T11:17:59;23.00;99.90
16038;DHT22;8123;50.906;6.172;2023-09-18T11:20:25;22.90;99.90
16038;DHT22;8123;50.906;6.172;2023-09-18T11:23:16;22.80;99.90
16038;DHT22;8123;50.906;6.172;2023-09-18T11:25:43;22.90;99.90
16038;DHT22;8123;50.906;6.172;2023-09-18T11:28:22;22.90;99.90
16038;DHT22;8123;50.906;6.172;2023-09-18T11:30:54;22.80;99.90
16038;DHT22;8123;50.906;6.172;2023-09-18T11:33:37;22.70;99.90
16038;DHT22;8123;50.906;6.172;2023-09-18T11:36:12;22.70;99.90
16038;DHT22;8123;50.906;6.172;2023-09-18T11:39:09;22.70;99.90
16038;DHT22;8123;50.906;6.172;2023-09-18T11:41:37;22.80;99.90
16038;DHT22;8123;50.906;6.172;2023-09-18T11:46:51;22.80;42.80
16038;DHT22;8123;50.906;6.172;2023-09-18T11:49:21;22.80;99.90
16038;DHT22;8123;50.906;6.172;2023-09-18T11:51:47;22.70;46.70
16038;DHT22;8123;50.906;6.172;2023-09-18T11:54:15;22.60;88.10
16038;DHT22;8123;50.906;6.172;2023-09-18T11:56:41;22.70;99.90
16038;DHT22;8123;50.906;6.172;2023-09-18T11:59:07;22.80;2.60
16038;DHT22;8123;50.906;6.172;2023-09-18T12:01:34;22.80;1.00
16038;DHT22;8123;50.906;6.172;2023-09-18T12:04:02;22.80;23.00
16038;DHT22;8123;50.906;6.172;2023-09-18T12:06:34;22.80;99.90
16038;DHT22;8123;50.906;6.172;2023-09-18T12:09:00;22.90;48.30
16038;DHT22;8123;50.906;6.172;2023-09-18T12:11:27;22.90;76.10
16038;DHT22;8123;50.906;6.172;2023-09-18T12:13:53;22.80;65.30
16038;DHT22;8123;50.906;6.172;2023-09-18T12:16:19;22.80;82.80
16038;DHT22;8123;50.906;6.172;2023-09-18T12:18:48;22.80;57.90
16038;DHT22;8123;50.906;6.172;2023-09-18T12:21:15;22.80;30.20
16038;DHT22;8123;50.906;6.172;2023-09-18T12:23:43;23.00;61.50
16038;DHT22;8123;50.906;6.172;2023-09-18T12:26:11;23.10;1.00
16038;DHT22;8123;50.906;6.172;2023-09-18T12:28:43;23.10;1.00
16038;DHT22;8123;50.906;6.172;2023-09-18T12:31:13;23.00;1.00
16038;DHT22;8123;50.906;6.172;2023-09-18T12:33:42;23.00;1.00
16038;DHT22;8123;50.906;6.172;2023-09-18T12:36:09;23.10;1.00
16038;DHT22;8123;50.906;6.172;2023-09-18T12:38:36;23.30;1.00
16038;DHT22;8123;50.906;6.172;2023-09-18T12:41:04;23.30;1.00
16038;DHT22;8123;50.906;6.172;2023-09-18T12:43:38;23.10;1.00
16038;DHT22;8123;50.906;6.172;2023-09-18T12:46:05;23.10;1.00
16038;DHT22;8123;50.906;6.172;2023-09-18T12:48:31;23.30;1.00
16038;DHT22;8123;50.906;6.172;2023-09-18T12:51:06;23.30;1.00
16038;DHT22;8123;50.906;6.172;2023-09-18T12:53:33;23.10;1.00
16038;DHT22;8123;50.906;6.172;2023-09-18T12:56:09;23.00;1.00
16038;DHT22;8123;50.906;6.172;2023-09-18T12:58:36;23.00;1.00
16038;DHT22;8123;50.906;6.172;2023-09-18T13:01:06;23.00;1.00
16038;DHT22;8123;50.906;6.172;2023-09-18T13:03:46;23.00;1.00
16038;DHT22;8123;50.906;6.172;2023-09-18T13:06:21;23.00;1.00
16038;DHT22;8123;50.906;6.172;2023-09-18T13:08:47;22.90;1.00
16038;DHT22;8123;50.906;6.172;2023-09-18T13:11:13;23.10;1.00
16038;DHT22;8123;50.906;6.172;2023-09-18T13:13:42;23.10;1.00
16038;DHT22;8123;50.906;6.172;2023-09-18T13:16:09;23.20;1.00
16038;DHT22;8123;50.906;6.172;2023-09-18T13:18:35;23.30;1.00
16038;DHT22;8123;50.906;6.172;2023-09-18T13:21:12;23.30;1.00
16038;DHT22;8123;50.906;6.172;2023-09-18T13:23:38;23.30;1.00
16038;DHT22;8123;50.906;6.172;2023-09-18T13:26:05;23.40;1.00
16038;DHT22;8123;50.906;6.172;2023-09-18T13:28:31;23.30;1.00
16038;DHT22;8123;50.906;6.172;2023-09-18T13:30:58;23.30;1.00
16038;DHT22;8123;50.906;6.172;2023-09-18T13:33:25;23.30;1.00
16038;DHT22;8123;50.906;6.172;2023-09-18T13:35:51;23.40;1.00
16038;DHT22;8123;50.906;6.172;2023-09-18T13:38:19;23.40;1.00
16038;DHT22;8123;50.906;6.172;2023-09-18T13:40:46;23.30;99.90
16038;DHT22;8123;50.906;6.172;2023-09-18T13:43:13;23.30;1.00
16038;DHT22;8123;50.906;6.172;2023-09-18T13:45:44;23.40;1.00
16038;DHT22;8123;50.906;6.172;2023-09-18T13:48:09;23.40;1.00
16038;DHT22;8123;50.906;6.172;2023-09-18T13:50:36;23.30;1.00
16038;DHT22;8123;50.906;6.172;2023-09-18T13:53:02;23.40;1.00
16038;DHT22;8123;50.906;6.172;2023-09-18T13:55:32;23.40;1.00
16038;DHT22;8123;50.906;6.172;2023-09-18T13:57:58;23.30;1.00
16038;DHT22;8123;50.906;6.172;2023-09-18T14:00:23;23.30;1.00
16038;DHT22;8123;50.906;6.172;2023-09-18T14:02:51;23.30;99.90
16038;DHT22;8123;50.906;6.172;2023-09-18T14:05:16;23.40;99.90
16038;DHT22;8123;50.906;6.172;2023-09-18T14:07:42;23.40;99.90
16038;DHT22;8123;50.906;6.172;2023-09-18T14:10:09;23.40;99.90
16038;DHT22;8123;50.906;6.172;2023-09-18T14:12:39;23.40;99.90
16038;DHT22;8123;50.906;6.172;2023-09-18T14:15:06;23.40;99.90
16038;DHT22;8123;50.906;6.172;2023-09-18T14:17:32;23.50;99.90
16038;DHT22;8123;50.906;6.172;2023-09-18T14:19:57;23.40;99.90
16038;DHT22;8123;50.906;6.172;2023-09-18T14:22:24;23.40;99.90
16038;DHT22;8123;50.906;6.172;2023-09-18T14:24:50;23.50;99.90
16038;DHT22;8123;50.906;6.172;2023-09-18T14:27:15;23.50;99.90
16038;DHT22;8123;50.906;6.172;2023-09-18T14:29:41;23.50;99.90
16038;DHT22;8123;50.906;6.172;2023-09-18T14:32:07;23.60;99.90
16038;DHT22;8123;50.906;6.172;2023-09-18T14:34:34;23.60;99.90
16038;DHT22;8123;50.906;6.172;2023-09-18T14:37:02;23.60;99.90
16038;DHT22;8123;50.906;6.172;2023-09-18T14:39:34;23.50;99.90
16038;DHT22;8123;50.906;6.172;2023-09-18T14:42:00;23.50;99.90
16038;DHT22;8123;50.906;6.172;2023-09-18T14:44:26;23.60;99.90
16038;DHT22;8123;50.906;6.172;2023-09-18T14:46:55;23.50;99.90
16038;DHT22;8123;50.906;6.172;2023-09-18T14:49:21;23.40;99.90
16038;DHT22;8123;50.906;6.172;2023-09-18T14:51:47;23.40;99.90
16038;DHT22;8123;50.906;6.172;2023-09-18T14:54:14;23.40;99.90
16038;DHT22;8123;50.906;6.172;2023-09-18T14:56:40;23.50;99.90
16038;DHT22;8123;50.906;6.172;2023-09-18T14:59:06;23.50;99.90
16038;DHT22;8123;50.906;6.172;2023-09-18T15:01:33;23.50;99.90
16038;DHT22;8123;50.906;6.172;2023-09-18T15:03:58;23.40;99.90
16038;DHT22;8123;50.906;6.172;2023-09-18T15:06:24;23.40;99.90
16038;DHT22;8123;50.906;6.172;2023-09-18T15:08:50;23.50;99.90
16038;DHT22;8123;50.906;6.172;2023-09-18T15:11:16;23.40;99.90
16038;DHT22;8123;50.906;6.172;2023-09-18T15:13:44;23.50;99.90
16038;DHT22;8123;50.906;6.172;2023-09-18T15:16:10;23.50;99.90
16038;DHT22;8123;50.906;6.172;2023-09-18T15:18:36;23.50;99.90
16038;DHT22;8123;50.906;6.172;2023-09-18T15:21:02;23.40;99.90
16038;DHT22;8123;50.906;6.172;2023-09-18T15:23:28;23.40;99.90
16038;DHT22;8123;50.906;6.172;2023-09-18T15:25:55;23.30;99.90
16038;DHT22;8123;50.906;6.172;2023-09-18T15:28:21;23.30;99.90
16038;DHT22;8123;50.906;6.172;2023-09-18T15:30:49;23.30;99.90
16038;DHT22;8123;50.906;6.172;2023-09-18T15:33:15;23.20;99.90
16038;DHT22;8123;50.906;6.172;2023-09-18T15:35:45;23.30;99.90
16038;DHT22;8123;50.906;6.172;2023-09-18T15:38:11;23.30;99.90
16038;DHT22;8123;50.906;6.172;2023-09-18T15:40:37;23.30;99.90
16038;DHT22;8123;50.906;6.172;2023-09-18T15:43:04;23.30;99.90
16038;DHT22;8123;50.906;6.172;2023-09-18T15:45:30;23.30;99.90
16038;DHT22;8123;50.906;6.172;2023-09-18T15:47:56;23.30;99.90
16038;DHT22;8123;50.906;6.172;2023-09-18T15:50:22;23.30;99.90
16038;DHT22;8123;50.906;6.172;2023-09-18T15:52:48;23.40;99.90
16038;DHT22;8123;50.906;6.172;2023-09-18T15:55:14;23.40;99.90
16038;DHT22;8123;50.906;6.172;2023-09-18T15:57:40;23.40;99.90
16038;DHT22;8123;50.906;6.172;2023-09-18T16:00:08;23.40;99.90
16038;DHT22;8123;50.906;6.172;2023-09-18T16:02:35;23.30;99.90